createdAt,value
2022-08-17T00:02:25.462Z,26.68
2022-08-17T00:04:54.329Z,27.07
2022-08-17T00:07:21.089Z,27.67
2022-08-17T00:09:47.730Z,27.78
2022-08-17T00:12:40.910Z,27.33
2022-08-17T00:15:01.421Z,27.14
2022-08-17T00:17:28.108Z,26.85
2022-08-17T00:19:54.738Z,26.93
2022-08-17T00:22:34.309Z,26.89
2022-08-17T00:25:03.667Z,26.73
2022-08-17T00:27:30.354Z,26.53
2022-08-17T00:29:57.061Z,26.34
2022-08-17T00:33:11.986Z,26.36
2022-08-17T00:35:13.021Z,26.10
2022-08-17T00:37:40.257Z,25.92
2022-08-17T00:40:09.148Z,25.93
2022-08-17T00:42:35.939Z,25.92
2022-08-17T00:45:05.218Z,25.95
2022-08-17T00:47:32.181Z,25.92
2022-08-17T00:49:59.017Z,25.98
2022-08-17T00:52:32.561Z,26.05
2022-08-17T00:54:59.812Z,25.96
2022-08-17T00:57:31.210Z,25.92
2022-08-17T01:00:05.872Z,25.97
2022-08-17T01:02:42.639Z,25.97
2022-08-17T01:05:25.645Z,25.86
2022-08-17T01:07:53.248Z,25.82
2022-08-17T01:10:59.577Z,25.85
2022-08-17T01:13:14.190Z,25.78
2022-08-17T01:15:46.516Z,25.84
2022-08-17T01:18:14.178Z,25.79
2022-08-17T01:20:52.035Z,25.88
2022-08-17T01:23:21.330Z,25.97
2022-08-17T01:26:01.877Z,26.58
2022-08-17T01:28:52.316Z,26.71
2022-08-17T01:31:18.301Z,26.34
2022-08-17T01:33:44.977Z,26.27
2022-08-17T01:36:11.847Z,26.05
2022-08-17T01:38:39.288Z,26.03
2022-08-17T01:41:12.577Z,25.96
2022-08-17T01:44:01.610Z,25.83
2022-08-17T01:46:36.600Z,25.77
2022-08-17T01:49:07.445Z,25.61
2022-08-17T01:51:34.669Z,25.59
2022-08-17T01:54:10.349Z,25.62
2022-08-17T01:56:40.564Z,25.61
2022-08-17T01:59:07.240Z,25.68
2022-08-17T02:01:35.071Z,25.66
2022-08-17T02:04:02.939Z,25.52
2022-08-17T02:06:52.721Z,25.50
2022-08-17T02:09:25.607Z,25.42
2022-08-17T02:11:56.641Z,25.42
2022-08-17T02:14:24.247Z,25.95
2022-08-17T02:16:52.452Z,26.12
2022-08-17T02:19:19.112Z,26.65
2022-08-17T02:21:48.976Z,26.71
2022-08-17T02:24:58.671Z,26.28
2022-08-17T02:27:16.212Z,25.96
2022-08-17T02:29:42.855Z,25.76
2022-08-17T02:32:20.862Z,25.61
2022-08-17T02:34:54.667Z,25.43
2022-08-17T02:37:21.308Z,25.39
2022-08-17T02:39:48.014Z,25.28
2022-08-17T02:42:15.088Z,25.17
2022-08-17T02:44:42.020Z,25.20
2022-08-17T02:47:10.064Z,25.31
2022-08-17T02:49:37.695Z,25.25
2022-08-17T02:52:06.991Z,25.21
2022-08-17T02:54:41.669Z,25.22
2022-08-17T02:57:10.142Z,25.27
2022-08-17T02:59:46.764Z,25.10
2022-08-17T03:02:15.607Z,24.96
2022-08-17T03:04:42.265Z,25.00
2022-08-17T03:07:08.883Z,24.89
2022-08-17T03:09:35.597Z,24.87
2022-08-17T03:12:08.530Z,24.87
2022-08-17T03:14:41.723Z,24.87
2022-08-17T03:17:16.944Z,24.83
2022-08-17T03:19:44.525Z,24.85
2022-08-17T03:22:36.456Z,24.90
2022-08-17T03:24:57.885Z,24.88
2022-08-17T03:27:24.497Z,24.88
2022-08-17T03:29:51.048Z,24.93
2022-08-17T03:32:17.817Z,24.86
2022-08-17T03:34:44.449Z,24.79
2022-08-17T03:37:11.128Z,24.98
2022-08-17T03:39:38.162Z,25.07
2022-08-17T03:42:31.815Z,24.93
2022-08-17T03:45:00.341Z,25.05
2022-08-17T03:47:45.619Z,24.91
2022-08-17T03:50:32.362Z,24.67
2022-08-17T03:53:17.866Z,24.73
2022-08-17T03:56:03.281Z,24.70
2022-08-17T03:58:29.992Z,24.67
2022-08-17T04:00:56.721Z,24.58
2022-08-17T04:03:23.478Z,24.73
2022-08-17T04:05:50.151Z,24.76
2022-08-17T04:08:16.767Z,24.82
2022-08-17T04:10:45.154Z,24.82
2022-08-17T04:13:12.515Z,25.03
2022-08-17T04:15:39.261Z,25.21
2022-08-17T04:18:07.550Z,25.85
2022-08-17T04:20:34.565Z,25.66
2022-08-17T04:23:11.681Z,25.22
2022-08-17T04:25:42.273Z,24.93
2022-08-17T04:28:16.113Z,24.83
2022-08-17T04:30:45.174Z,24.76
2022-08-17T04:33:14.809Z,24.74
2022-08-17T04:35:47.464Z,24.63
2022-08-17T04:38:17.980Z,24.64
2022-08-17T04:41:03.248Z,24.57
2022-08-17T04:43:31.978Z,24.38
2022-08-17T04:46:02.403Z,24.60
2022-08-17T04:48:36.410Z,24.97
2022-08-17T04:51:15.179Z,25.34
2022-08-17T04:53:45.248Z,25.73
2022-08-17T04:56:16.637Z,25.28
2022-08-17T04:58:48.530Z,24.99
2022-08-17T05:04:20.779Z,24.56
2022-08-17T05:06:49.953Z,24.54
2022-08-17T05:09:18.036Z,24.52
2022-08-17T05:11:45.859Z,24.42
2022-08-17T05:14:13.024Z,24.32
2022-08-17T05:16:39.692Z,24.39
2022-08-17T05:19:06.452Z,24.48
2022-08-17T05:21:33.219Z,24.49
2022-08-17T05:24:00.105Z,24.52
2022-08-17T05:26:28.796Z,24.55
2022-08-17T05:28:59.546Z,24.67
2022-08-17T05:31:28.939Z,24.80
2022-08-17T05:33:55.953Z,24.99
2022-08-17T05:36:43.364Z,25.08
2022-08-17T05:39:09.438Z,25.06
2022-08-17T05:41:42.660Z,25.15
2022-08-17T05:44:09.340Z,25.25
2022-08-17T05:46:40.552Z,25.32
2022-08-17T05:49:08.694Z,25.43
2022-08-17T05:52:08.209Z,25.34
2022-08-17T05:54:53.697Z,25.31
2022-08-17T05:57:43.570Z,25.49
2022-08-17T06:00:41.843Z,25.67
2022-08-17T06:03:40.536Z,25.74
2022-08-17T06:06:33.722Z,25.90
2022-08-17T06:09:34.085Z,25.77
2022-08-17T06:12:24.974Z,25.96
2022-08-17T06:15:03.696Z,26.06
2022-08-17T06:17:31.299Z,26.11
2022-08-17T06:20:03.403Z,26.25
2022-08-17T06:22:35.256Z,26.33
2022-08-17T06:25:46.349Z,26.37
2022-08-17T06:28:18.449Z,26.25
2022-08-17T06:31:00.698Z,26.20
2022-08-17T06:33:35.295Z,26.38
2022-08-17T06:36:29.298Z,26.23
2022-08-17T06:39:17.839Z,26.32
2022-08-17T06:42:09.639Z,26.21
2022-08-17T06:45:16.998Z,26.28
2022-08-17T06:47:56.959Z,26.27
2022-08-17T06:50:46.604Z,26.26
2022-08-17T06:53:38.270Z,26.26
2022-08-17T06:56:06.972Z,26.36
2022-08-17T06:58:35.823Z,26.50
2022-08-17T07:01:10.897Z,26.55
2022-08-17T07:03:57.161Z,26.63
2022-08-17T07:06:28.375Z,26.78
2022-08-17T07:09:07.644Z,26.82
2022-08-17T07:11:41.009Z,26.78
2022-08-17T07:14:36.636Z,26.81
2022-08-17T07:17:13.466Z,26.85
2022-08-17T07:19:45.431Z,26.86
2022-08-17T07:22:30.804Z,26.94
2022-08-17T07:25:18.539Z,26.80
2022-08-17T07:27:51.601Z,27.04
2022-08-17T07:30:47.238Z,27.03
2022-08-17T07:33:26.832Z,27.09
2022-08-17T07:35:53.925Z,27.10
2022-08-17T07:38:28.400Z,27.15
2022-08-17T07:40:57.891Z,27.18
2022-08-17T07:43:49.797Z,27.29
2022-08-17T07:46:39.630Z,27.41
2022-08-17T07:49:09.408Z,27.40
2022-08-17T07:51:48.212Z,27.44
2022-08-17T07:54:30.317Z,27.57
2022-08-17T07:57:09.049Z,27.59
2022-08-17T07:59:37.966Z,27.50
2022-08-17T08:02:33.670Z,27.59
2022-08-17T08:05:10.147Z,27.55
2022-08-17T08:07:56.455Z,27.81
2022-08-17T08:10:28.231Z,27.79
2022-08-17T08:13:12.271Z,27.73
2022-08-17T08:15:53.714Z,27.90
2022-08-17T08:18:54.605Z,28.05
2022-08-17T08:21:19.814Z,27.93
2022-08-17T08:23:59.635Z,28.17
2022-08-17T08:26:46.450Z,28.13
2022-08-17T08:29:23.479Z,27.99
2022-08-17T08:32:28.078Z,28.13
2022-08-17T08:35:02.703Z,28.09
2022-08-17T08:38:07.975Z,28.33
2022-08-17T08:41:10.018Z,28.38
2022-08-17T08:43:36.579Z,28.34
2022-08-17T08:46:21.922Z,28.61
2022-08-17T08:49:17.105Z,28.45
2022-08-17T08:52:00.295Z,28.60
2022-08-17T08:54:35.997Z,28.67
2022-08-17T08:57:34.081Z,28.56
2022-08-17T09:00:09.026Z,28.69
2022-08-17T09:02:59.941Z,28.79
2022-08-17T09:05:48.683Z,28.78
2022-08-17T09:08:15.898Z,28.94
2022-08-17T09:12:02.779Z,28.79
2022-08-17T09:14:47.370Z,28.82
2022-08-17T09:17:29.889Z,28.92
2022-08-17T09:20:27.221Z,29.20
2022-08-17T09:23:08.653Z,29.07
2022-08-17T09:25:49.871Z,29.07
2022-08-17T09:28:27.261Z,29.02
2022-08-17T09:31:04.221Z,29.00
2022-08-17T09:33:37.019Z,28.84
2022-08-17T09:36:10.201Z,28.81
2022-08-17T09:38:49.087Z,28.71
2022-08-17T09:41:18.326Z,28.75
2022-08-17T09:43:54.197Z,28.63
2022-08-17T09:46:38.958Z,28.86
2022-08-17T09:49:40.754Z,29.22
2022-08-17T09:52:20.123Z,29.32
2022-08-17T09:54:47.257Z,29.29
2022-08-17T09:57:30.237Z,29.18
2022-08-17T10:00:16.451Z,29.46
2022-08-17T10:03:09.767Z,29.57
2022-08-17T10:05:40.806Z,29.46
2022-08-17T10:08:13.278Z,29.48
2022-08-17T10:10:56.479Z,29.37
2022-08-17T10:14:37.318Z,29.58
2022-08-17T10:17:03.455Z,29.76
2022-08-17T10:19:44.013Z,29.84
2022-08-17T10:22:53.268Z,30.72
2022-08-17T10:25:54.724Z,30.78
2022-08-17T10:28:30.314Z,30.47
2022-08-17T10:31:31.029Z,30.31
2022-08-17T10:34:19.187Z,30.35
2022-08-17T10:36:52.542Z,30.27
2022-08-17T10:39:28.085Z,30.26
2022-08-17T10:42:03.243Z,30.25
2022-08-17T10:45:03.568Z,30.36
2022-08-17T10:47:56.115Z,30.66
2022-08-17T10:50:49.428Z,30.66
2022-08-17T10:53:49.466Z,30.80
2022-08-17T10:56:18.935Z,30.84
2022-08-17T10:58:55.640Z,30.90
2022-08-17T11:01:34.517Z,31.62
2022-08-17T11:04:50.432Z,32.33
2022-08-17T11:07:37.073Z,31.94
2022-08-17T11:10:36.232Z,31.81
2022-08-17T11:13:40.634Z,32.48
2022-08-17T11:16:08.909Z,32.64
2022-08-17T11:18:35.831Z,32.39
2022-08-17T11:21:24.372Z,32.51
2022-08-17T11:24:30.604Z,32.03
2022-08-17T11:27:03.387Z,31.58
2022-08-17T11:29:50.661Z,31.60
2022-08-17T11:32:47.591Z,32.16
2022-08-17T11:35:21.371Z,32.70
2022-08-17T11:38:08.687Z,32.35
2022-08-17T11:41:14.521Z,32.07
2022-08-17T11:43:59.094Z,31.96
2022-08-17T11:47:10.179Z,31.44
2022-08-17T11:49:58.443Z,31.12
2022-08-17T11:52:46.934Z,30.94
2022-08-17T11:55:35.723Z,31.16
2022-08-17T11:58:31.085Z,32.43
2022-08-17T12:01:03.706Z,33.39
2022-08-17T12:03:33.421Z,33.83
2022-08-17T12:06:41.557Z,32.89
2022-08-17T12:09:29.779Z,31.92
2022-08-17T12:12:16.850Z,31.41
2022-08-17T12:15:10.454Z,31.34
2022-08-17T12:17:40.467Z,31.88
2022-08-17T12:20:32.117Z,32.25
2022-08-17T12:23:09.954Z,32.53
2022-08-17T12:25:45.428Z,31.94
2022-08-17T12:28:24.439Z,31.81
2022-08-17T12:30:52.167Z,31.62
2022-08-17T12:33:25.467Z,31.66
2022-08-17T12:36:04.660Z,32.61
2022-08-17T12:38:37.160Z,33.40
2022-08-17T12:41:25.872Z,32.82
2022-08-17T12:44:02.425Z,32.58
2022-08-17T12:46:44.791Z,32.22
2022-08-17T12:49:15.799Z,31.81
2022-08-17T12:51:47.789Z,31.60
2022-08-17T12:54:26.531Z,31.59
2022-08-17T12:56:53.613Z,31.92
2022-08-17T12:59:30.290Z,32.66
2022-08-17T13:01:57.816Z,32.55
2022-08-17T13:04:26.593Z,32.04
2022-08-17T13:06:59.542Z,32.02
2022-08-17T13:09:36.070Z,32.51
2022-08-17T13:12:08.116Z,32.02
2022-08-17T13:14:35.403Z,31.48
2022-08-17T13:17:09.692Z,31.07
2022-08-17T13:19:48.470Z,32.06
2022-08-17T13:22:15.112Z,32.93
2022-08-17T13:24:54.962Z,32.93
2022-08-17T13:27:23.920Z,32.66
2022-08-17T13:29:55.799Z,32.17
2022-08-17T13:32:33.427Z,32.57
2022-08-17T13:35:14.303Z,32.34
2022-08-17T13:37:57.745Z,31.57
2022-08-17T13:40:53.193Z,31.10
2022-08-17T13:43:41.057Z,30.85
2022-08-17T13:46:11.607Z,30.64
2022-08-17T13:48:39.031Z,30.64
2022-08-17T13:51:14.116Z,30.65
2022-08-17T13:53:40.747Z,30.65
2022-08-17T13:56:33.391Z,30.50
2022-08-17T13:59:01.088Z,30.58
2022-08-17T14:01:33.265Z,30.69
2022-08-17T14:04:05.851Z,30.55
2022-08-17T14:06:52.477Z,30.40
2022-08-17T14:09:24.312Z,30.22
2022-08-17T14:11:52.843Z,30.43
2022-08-17T14:14:23.461Z,30.45
2022-08-17T14:16:54.316Z,30.81
2022-08-17T14:19:24.810Z,30.79
2022-08-17T14:21:56.442Z,30.49
2022-08-17T14:24:24.579Z,30.55
2022-08-17T14:26:55.015Z,30.40
2022-08-17T14:29:23.722Z,30.38
2022-08-17T14:31:54.382Z,30.61
2022-08-17T14:34:22.990Z,30.59
2022-08-17T14:36:49.982Z,30.33
2022-08-17T14:39:20.341Z,30.25
2022-08-17T14:41:47.612Z,30.34
2022-08-17T14:44:16.851Z,30.31
2022-08-17T14:46:44.858Z,30.40
2022-08-17T14:49:16.273Z,30.37
2022-08-17T14:51:43.730Z,30.24
2022-08-17T14:54:28.755Z,30.32
2022-08-17T14:57:22.790Z,30.30
2022-08-17T14:59:49.139Z,30.22
2022-08-17T15:02:30.460Z,30.31
2022-08-17T15:05:04.315Z,30.21
2022-08-17T15:07:31.660Z,30.03
2022-08-17T15:10:01.487Z,30.08
2022-08-17T15:12:33.196Z,30.06
2022-08-17T15:15:01.052Z,29.99
2022-08-17T15:17:45.277Z,29.86
2022-08-17T15:20:20.447Z,30.14
2022-08-17T15:22:54.965Z,30.22
2022-08-17T15:25:22.433Z,30.37
2022-08-17T15:27:49.805Z,30.56
2022-08-17T15:30:17.979Z,30.65
2022-08-17T15:32:51.139Z,30.55
2022-08-17T15:35:28.341Z,30.39
2022-08-17T15:37:57.905Z,30.35
2022-08-17T15:40:25.181Z,30.53
2022-08-17T15:42:52.751Z,30.57
2022-08-17T15:45:22.519Z,30.35
2022-08-17T15:47:49.314Z,30.18
2022-08-17T15:50:16.146Z,30.31
2022-08-17T15:52:44.962Z,30.39
2022-08-17T15:55:14.351Z,30.48
2022-08-17T15:57:41.052Z,30.61
2022-08-17T16:00:09.718Z,30.51
2022-08-17T16:03:45.712Z,30.50
2022-08-17T16:05:25.244Z,30.39
2022-08-17T16:07:52.999Z,30.37
2022-08-17T16:10:21.035Z,30.42
2022-08-17T16:12:49.690Z,30.46
2022-08-17T16:15:17.359Z,30.33
2022-08-17T16:17:44.070Z,30.24
2022-08-17T16:20:20.638Z,30.21
2022-08-17T16:22:49.348Z,30.04
2022-08-17T16:25:22.986Z,29.90
2022-08-17T16:28:07.104Z,29.84
2022-08-17T16:30:33.730Z,29.87
2022-08-17T16:33:03.082Z,29.82
2022-08-17T16:35:29.987Z,29.80
2022-08-17T16:37:58.821Z,29.98
2022-08-17T16:40:28.174Z,30.22
2022-08-17T16:42:55.485Z,30.24
2022-08-17T16:45:27.558Z,30.30
2022-08-17T16:47:54.995Z,30.22
2022-08-17T16:50:23.739Z,30.13
2022-08-17T17:16:29.294Z,28.88
2022-08-17T17:19:17.945Z,28.72
2022-08-17T17:22:33.054Z,28.50
2022-08-17T17:25:53.848Z,28.83
2022-08-17T17:28:50.309Z,28.94
2022-08-17T17:31:20.478Z,29.03
2022-08-17T17:33:52.541Z,29.00
2022-08-17T17:36:40.263Z,28.78
2022-08-17T17:39:14.157Z,28.62
2022-08-17T17:41:58.669Z,29.04
2022-08-17T17:44:30.208Z,29.06
2022-08-17T17:47:00.967Z,29.15
2022-08-17T17:49:34.166Z,29.13
2022-08-17T17:52:13.176Z,28.72
2022-08-17T17:55:04.412Z,28.33
2022-08-17T17:58:02.431Z,28.16
2022-08-17T18:00:44.355Z,27.77
2022-08-17T18:03:36.026Z,27.82
2022-08-17T18:06:05.518Z,27.69
2022-08-17T18:08:49.564Z,27.64
2022-08-17T18:11:53.965Z,27.46
2022-08-17T18:14:44.176Z,27.66
2022-08-17T18:17:10.890Z,27.33
2022-08-17T18:19:39.892Z,27.20
2022-08-17T18:22:14.454Z,27.21
2022-08-17T18:24:45.281Z,27.29
2022-08-17T18:27:31.460Z,27.08
2022-08-17T18:30:22.454Z,26.92
2022-08-17T18:32:49.823Z,26.93
2022-08-17T18:35:19.540Z,26.79
2022-08-17T18:37:55.951Z,26.81
2022-08-17T18:40:30.882Z,26.53
2022-08-17T18:43:13.727Z,26.49
2022-08-17T18:45:52.187Z,26.08
2022-08-17T18:48:33.403Z,26.31
2022-08-17T18:51:42.141Z,26.26
2022-08-17T18:54:13.067Z,26.31
2022-08-17T18:56:59.779Z,26.35
2022-08-17T18:59:33.748Z,26.48
2022-08-17T19:02:20.572Z,26.12
2022-08-17T19:05:13.597Z,26.04
2022-08-17T19:07:46.709Z,26.12
2022-08-17T19:10:21.793Z,26.43
2022-08-17T19:13:00.466Z,26.37
2022-08-17T19:15:35.254Z,26.53
2022-08-17T19:18:14.721Z,26.61
2022-08-17T19:20:49.889Z,26.45
2022-08-17T19:23:54.003Z,26.38
2022-08-17T19:26:53.513Z,26.57
2022-08-17T19:29:25.619Z,26.32
2022-08-17T19:31:55.827Z,26.28
2022-08-17T19:34:34.108Z,26.30
2022-08-17T19:37:10.448Z,26.18
2022-08-17T19:39:55.990Z,26.16
2022-08-17T19:42:26.803Z,26.48
2022-08-17T19:45:11.896Z,26.55
2022-08-17T19:48:02.829Z,26.19
2022-08-17T19:51:04.167Z,26.61
2022-08-17T19:54:01.516Z,26.27
2022-08-17T19:56:37.545Z,26.01
2022-08-17T19:59:23.611Z,26.64
2022-08-17T20:02:05.164Z,26.70
2022-08-17T20:04:42.305Z,26.48
2022-08-17T20:07:17.329Z,26.57
2022-08-17T20:09:52.866Z,26.74
2022-08-17T20:12:23.862Z,26.52
2022-08-17T20:14:57.218Z,26.27
2022-08-17T20:17:34.991Z,26.26
2022-08-17T20:20:24.220Z,26.11
2022-08-17T20:23:04.783Z,26.18
2022-08-17T20:26:05.422Z,26.26
2022-08-17T20:28:36.051Z,26.46
2022-08-17T20:31:25.442Z,26.46
2022-08-17T20:33:55.082Z,26.98
2022-08-17T20:36:24.274Z,27.13
2022-08-17T20:38:57.131Z,27.23
2022-08-17T20:41:26.938Z,27.34
2022-08-17T20:43:56.477Z,27.32
2022-08-17T20:46:33.037Z,27.22
2022-08-17T20:49:08.676Z,27.06
2022-08-17T20:52:00.633Z,27.00
2022-08-17T20:54:51.118Z,26.62
2022-08-17T20:57:33.198Z,26.81
2022-08-17T21:00:14.811Z,26.86
2022-08-17T21:02:49.618Z,26.67
2022-08-17T21:05:32.604Z,26.48
2022-08-17T21:08:14.372Z,26.39
2022-08-17T21:10:43.853Z,26.28
2022-08-17T21:13:15.558Z,26.56
2022-08-17T21:15:42.278Z,26.96
2022-08-17T21:18:17.268Z,27.08
2022-08-17T21:21:17.594Z,27.11
2022-08-17T21:24:09.357Z,27.12
2022-08-17T21:27:04.605Z,26.83
2022-08-17T21:29:34.016Z,27.06
2022-08-17T21:32:06.265Z,27.24
2022-08-17T21:35:07.968Z,27.16
2022-08-17T21:37:40.753Z,27.08
2022-08-17T21:40:10.530Z,27.21
2022-08-17T21:42:45.074Z,27.27
2022-08-17T21:45:21.141Z,27.12
2022-08-17T21:48:11.501Z,27.00
2022-08-17T21:50:41.627Z,26.93
2022-08-17T21:53:15.059Z,26.94
2022-08-17T21:55:41.763Z,26.72
2022-08-17T21:58:29.400Z,26.42
2022-08-17T22:01:09.518Z,26.29
2022-08-17T22:03:37.548Z,26.15
2022-08-17T22:06:24.827Z,26.46
2022-08-17T22:09:16.572Z,26.56
2022-08-17T22:11:58.514Z,26.31
2022-08-17T22:14:52.506Z,26.25
2022-08-17T22:17:45.027Z,26.04
2022-08-17T22:20:21.789Z,26.01
2022-08-17T22:23:13.068Z,25.97
2022-08-17T22:26:09.544Z,25.87
2022-08-17T22:28:53.178Z,25.88
2022-08-17T22:31:23.582Z,25.88
2022-08-17T22:34:02.354Z,25.81
2022-08-17T22:36:30.246Z,25.98
2022-08-17T22:39:11.135Z,25.98
2022-08-17T22:41:48.040Z,26.04
2022-08-17T22:44:14.952Z,25.91
2022-08-17T22:46:49.396Z,25.91
2022-08-17T22:49:34.247Z,25.91
2022-08-17T22:52:29.222Z,25.87
2022-08-17T22:55:35.714Z,25.74
2022-08-17T22:58:30.511Z,25.65
2022-08-17T23:01:34.860Z,25.60
2022-08-17T23:04:03.196Z,25.64
2022-08-17T23:06:33.916Z,25.88
2022-08-17T23:09:03.843Z,26.25
2022-08-17T23:11:47.860Z,26.30
2022-08-17T23:14:19.222Z,26.21
2022-08-17T23:16:46.937Z,25.99
2022-08-17T23:19:38.951Z,25.81
2022-08-17T23:22:08.748Z,25.76
2022-08-17T23:24:41.815Z,25.79
2022-08-17T23:27:08.436Z,25.66
2022-08-17T23:29:39.259Z,25.56
2022-08-17T23:32:06.957Z,25.65
2022-08-17T23:34:34.127Z,25.80
2022-08-17T23:37:02.280Z,26.05
2022-08-17T23:39:29.390Z,26.14
2022-08-17T23:41:58.962Z,26.08
2022-08-17T23:44:26.265Z,25.92
2022-08-17T23:46:53.928Z,25.82
2022-08-17T23:49:20.668Z,25.88
2022-08-17T23:51:49.026Z,25.73
2022-08-17T23:54:20.886Z,25.60
2022-08-17T23:56:47.622Z,25.52
2022-08-17T23:59:20.056Z,25.51
